sensor_id;sensor_type;location;lat;lon;timestamp;P1;durP1;ratioP1;P2;durP2;ratioP2
58689;SDS011;44470;53.206;-6.106;2023-02-17T00:01:43;35.92;;;17.65;;
58689;SDS011;44470;53.206;-6.106;2023-02-17T00:07:31;26.95;;;14.88;;
58689;SDS011;44470;53.206;-6.106;2023-02-17T00:13:19;30.88;;;15.30;;
58689;SDS011;44470;53.206;-6.106;2023-02-17T00:15:45;27.80;;;13.77;;
58689;SDS011;44470;53.206;-6.106;2023-02-17T00:18:10;29.20;;;13.70;;
58689;SDS011;44470;53.206;-6.106;2023-02-17T00:20:35;26.48;;;13.88;;
58689;SDS011;44470;53.206;-6.106;2023-02-17T00:23:01;28.10;;;12.25;;
58689;SDS011;44470;53.206;-6.106;2023-02-17T00:25:26;22.92;;;11.57;;
58689;SDS011;44470;53.206;-6.106;2023-02-17T00:27:52;19.35;;;11.38;;
58689;SDS011;44470;53.206;-6.106;2023-02-17T00:30:17;20.33;;;11.25;;
58689;SDS011;44470;53.206;-6.106;2023-02-17T00:32:43;21.13;;;11.02;;
58689;SDS011;44470;53.206;-6.106;2023-02-17T00:35:08;19.88;;;10.57;;
58689;SDS011;44470;53.206;-6.106;2023-02-17T00:37:34;17.10;;;9.30;;
58689;SDS011;44470;53.206;-6.106;2023-02-17T00:40:00;16.77;;;9.32;;
58689;SDS011;44470;53.206;-6.106;2023-02-17T00:42:26;15.05;;;8.65;;
58689;SDS011;44470;53.206;-6.106;2023-02-17T00:44:51;21.60;;;9.05;;
58689;SDS011;44470;53.206;-6.106;2023-02-17T00:47:18;16.60;;;7.85;;
58689;SDS011;44470;53.206;-6.106;2023-02-17T00:49:45;13.48;;;7.30;;
58689;SDS011;44470;53.206;-6.106;2023-02-17T00:55:00;16.88;;;7.55;;
58689;SDS011;44470;53.206;-6.106;2023-02-17T00:57:25;13.60;;;7.28;;
58689;SDS011;44470;53.206;-6.106;2023-02-17T00:59:51;11.95;;;6.25;;
58689;SDS011;44470;53.206;-6.106;2023-02-17T01:02:16;10.30;;;5.90;;
58689;SDS011;44470;53.206;-6.106;2023-02-17T01:04:41;13.98;;;6.07;;
58689;SDS011;44470;53.206;-6.106;2023-02-17T01:07:07;11.38;;;5.78;;
58689;SDS011;44470;53.206;-6.106;2023-02-17T01:09:32;10.98;;;5.70;;
58689;SDS011;44470;53.206;-6.106;2023-02-17T01:11:58;11.63;;;5.63;;
58689;SDS011;44470;53.206;-6.106;2023-02-17T01:14:23;11.20;;;5.32;;
58689;SDS011;44470;53.206;-6.106;2023-02-17T01:16:49;8.43;;;4.68;;
58689;SDS011;44470;53.206;-6.106;2023-02-17T01:19:16;9.30;;;4.57;;
58689;SDS011;44470;53.206;-6.106;2023-02-17T01:21:46;7.28;;;4.55;;
58689;SDS011;44470;53.206;-6.106;2023-02-17T01:24:11;7.63;;;4.32;;
58689;SDS011;44470;53.206;-6.106;2023-02-17T01:26:38;7.78;;;4.07;;
58689;SDS011;44470;53.206;-6.106;2023-02-17T01:29:04;7.75;;;4.13;;
58689;SDS011;44470;53.206;-6.106;2023-02-17T01:31:31;7.93;;;3.97;;
58689;SDS011;44470;53.206;-6.106;2023-02-17T01:33:58;5.47;;;3.63;;
58689;SDS011;44470;53.206;-6.106;2023-02-17T01:36:25;6.50;;;3.58;;
58689;SDS011;44470;53.206;-6.106;2023-02-17T01:38:52;6.35;;;3.42;;
58689;SDS011;44470;53.206;-6.106;2023-02-17T01:41:18;9.30;;;3.78;;
58689;SDS011;44470;53.206;-6.106;2023-02-17T01:46:31;7.20;;;3.63;;
58689;SDS011;44470;53.206;-6.106;2023-02-17T01:48:57;5.63;;;3.00;;
58689;SDS011;44470;53.206;-6.106;2023-02-17T01:51:27;6.45;;;2.90;;
58689;SDS011;44470;53.206;-6.106;2023-02-17T01:54:01;4.10;;;2.70;;
58689;SDS011;44470;53.206;-6.106;2023-02-17T01:56:30;4.10;;;2.58;;
58689;SDS011;44470;53.206;-6.106;2023-02-17T01:59:04;3.75;;;2.60;;
58689;SDS011;44470;53.206;-6.106;2023-02-17T02:01:34;6.93;;;3.17;;
58689;SDS011;44470;53.206;-6.106;2023-02-17T02:04:01;4.40;;;2.83;;
58689;SDS011;44470;53.206;-6.106;2023-02-17T02:06:29;4.05;;;2.50;;
58689;SDS011;44470;53.206;-6.106;2023-02-17T02:09:02;4.30;;;2.38;;
58689;SDS011;44470;53.206;-6.106;2023-02-17T02:11:33;3.95;;;2.17;;
58689;SDS011;44470;53.206;-6.106;2023-02-17T02:14:00;2.75;;;2.15;;
58689;SDS011;44470;53.206;-6.106;2023-02-17T02:28:08;2.97;;;2.28;;
58689;SDS011;44470;53.206;-6.106;2023-02-17T02:31:11;4.57;;;2.28;;
58689;SDS011;44470;53.206;-6.106;2023-02-17T02:36:46;1.98;;;1.60;;
58689;SDS011;44470;53.206;-6.106;2023-02-17T02:39:19;5.82;;;1.77;;
58689;SDS011;44470;53.206;-6.106;2023-02-17T02:41:49;4.15;;;2.00;;
58689;SDS011;44470;53.206;-6.106;2023-02-17T02:44:19;5.68;;;1.67;;
58689;SDS011;44470;53.206;-6.106;2023-02-17T02:46:59;3.45;;;1.63;;
58689;SDS011;44470;53.206;-6.106;2023-02-17T02:49:27;1.77;;;1.38;;
58689;SDS011;44470;53.206;-6.106;2023-02-17T03:00:10;2.30;;;1.23;;
58689;SDS011;44470;53.206;-6.106;2023-02-17T03:02:47;2.88;;;1.40;;
58689;SDS011;44470;53.206;-6.106;2023-02-17T03:05:24;1.77;;;1.20;;
58689;SDS011;44470;53.206;-6.106;2023-02-17T03:11:03;2.28;;;1.30;;
58689;SDS011;44470;53.206;-6.106;2023-02-17T03:13:32;2.00;;;1.10;;
58689;SDS011;44470;53.206;-6.106;2023-02-17T03:16:04;1.35;;;0.80;;
58689;SDS011;44470;53.206;-6.106;2023-02-17T03:18:31;0.93;;;0.75;;
58689;SDS011;44470;53.206;-6.106;2023-02-17T03:21:01;2.90;;;1.02;;
58689;SDS011;44470;53.206;-6.106;2023-02-17T03:23:34;1.33;;;1.00;;
58689;SDS011;44470;53.206;-6.106;2023-02-17T03:26:00;1.27;;;0.93;;
58689;SDS011;44470;53.206;-6.106;2023-02-17T03:28:25;1.40;;;1.00;;
58689;SDS011;44470;53.206;-6.106;2023-02-17T03:30:51;2.15;;;0.85;;
58689;SDS011;44470;53.206;-6.106;2023-02-17T03:33:16;3.50;;;0.98;;
58689;SDS011;44470;53.206;-6.106;2023-02-17T03:35:42;0.82;;;0.70;;
58689;SDS011;44470;53.206;-6.106;2023-02-17T03:38:08;0.90;;;0.70;;
58689;SDS011;44470;53.206;-6.106;2023-02-17T03:40:33;0.90;;;0.90;;
58689;SDS011;44470;53.206;-6.106;2023-02-17T03:42:59;0.80;;;0.70;;
58689;SDS011;44470;53.206;-6.106;2023-02-17T03:45:24;2.38;;;0.85;;
58689;SDS011;44470;53.206;-6.106;2023-02-17T03:47:50;1.00;;;0.90;;
58689;SDS011;44470;53.206;-6.106;2023-02-17T03:50:15;1.20;;;0.73;;
58689;SDS011;44470;53.206;-6.106;2023-02-17T03:52:41;0.82;;;0.80;;
58689;SDS011;44470;53.206;-6.106;2023-02-17T03:55:06;3.13;;;0.77;;
58689;SDS011;44470;53.206;-6.106;2023-02-17T03:57:32;0.60;;;0.60;;
58689;SDS011;44470;53.206;-6.106;2023-02-17T03:59:59;0.60;;;0.60;;
58689;SDS011;44470;53.206;-6.106;2023-02-17T04:02:24;1.73;;;0.70;;
58689;SDS011;44470;53.206;-6.106;2023-02-17T04:04:50;1.15;;;0.50;;
58689;SDS011;44470;53.206;-6.106;2023-02-17T04:07:15;0.73;;;0.60;;
58689;SDS011;44470;53.206;-6.106;2023-02-17T04:09:41;1.38;;;0.50;;
58689;SDS011;44470;53.206;-6.106;2023-02-17T04:12:06;1.00;;;0.55;;
58689;SDS011;44470;53.206;-6.106;2023-02-17T04:14:32;1.85;;;0.50;;
58689;SDS011;44470;53.206;-6.106;2023-02-17T04:16:57;2.08;;;0.52;;
58689;SDS011;44470;53.206;-6.106;2023-02-17T04:19:26;0.52;;;0.52;;
58689;SDS011;44470;53.206;-6.106;2023-02-17T04:21:51;1.08;;;0.47;;
58689;SDS011;44470;53.206;-6.106;2023-02-17T04:24:17;0.65;;;0.65;;
58689;SDS011;44470;53.206;-6.106;2023-02-17T04:26:43;0.85;;;0.60;;
58689;SDS011;44470;53.206;-6.106;2023-02-17T04:29:08;1.70;;;0.40;;
58689;SDS011;44470;53.206;-6.106;2023-02-17T04:31:33;0.47;;;0.40;;
58689;SDS011;44470;53.206;-6.106;2023-02-17T04:33:59;0.43;;;0.30;;
58689;SDS011;44470;53.206;-6.106;2023-02-17T04:36:24;1.00;;;0.40;;
58689;SDS011;44470;53.206;-6.106;2023-02-17T04:38:50;0.80;;;0.52;;
58689;SDS011;44470;53.206;-6.106;2023-02-17T04:41:16;0.47;;;0.30;;
58689;SDS011;44470;53.206;-6.106;2023-02-17T04:43:41;1.00;;;0.70;;
58689;SDS011;44470;53.206;-6.106;2023-02-17T04:46:12;2.00;;;0.43;;
58689;SDS011;44470;53.206;-6.106;2023-02-17T04:48:37;0.75;;;0.38;;
58689;SDS011;44470;53.206;-6.106;2023-02-17T04:51:03;0.65;;;0.30;;
58689;SDS011;44470;53.206;-6.106;2023-02-17T04:53:29;0.98;;;0.52;;
58689;SDS011;44470;53.206;-6.106;2023-02-17T04:55:54;0.95;;;0.40;;
58689;SDS011;44470;53.206;-6.106;2023-02-17T04:58:20;0.65;;;0.57;;
58689;SDS011;44470;53.206;-6.106;2023-02-17T05:00:46;1.42;;;0.40;;
58689;SDS011;44470;53.206;-6.106;2023-02-17T05:03:13;0.35;;;0.30;;
58689;SDS011;44470;53.206;-6.106;2023-02-17T05:05:38;0.50;;;0.28;;
58689;SDS011;44470;53.206;-6.106;2023-02-17T05:08:03;1.02;;;0.30;;
58689;SDS011;44470;53.206;-6.106;2023-02-17T05:10:29;0.40;;;0.30;;
58689;SDS011;44470;53.206;-6.106;2023-02-17T05:12:55;1.05;;;0.52;;
58689;SDS011;44470;53.206;-6.106;2023-02-17T05:15:20;1.23;;;0.10;;
58689;SDS011;44470;53.206;-6.106;2023-02-17T05:17:46;0.80;;;0.30;;
58689;SDS011;44470;53.206;-6.106;2023-02-17T05:20:12;1.55;;;0.38;;
58689;SDS011;44470;53.206;-6.106;2023-02-17T05:22:38;0.28;;;0.20;;
58689;SDS011;44470;53.206;-6.106;2023-02-17T05:25:03;0.52;;;0.25;;
58689;SDS011;44470;53.206;-6.106;2023-02-17T05:27:30;0.50;;;0.30;;
58689;SDS011;44470;53.206;-6.106;2023-02-17T05:29:56;0.45;;;0.28;;
58689;SDS011;44470;53.206;-6.106;2023-02-17T05:35:07;0.75;;;0.47;;
58689;SDS011;44470;53.206;-6.106;2023-02-17T05:37:33;0.20;;;0.20;;
58689;SDS011;44470;53.206;-6.106;2023-02-17T05:39:58;0.47;;;0.40;;
58689;SDS011;44470;53.206;-6.106;2023-02-17T05:42:24;0.30;;;0.30;;
58689;SDS011;44470;53.206;-6.106;2023-02-17T05:44:53;0.55;;;0.20;;
58689;SDS011;44470;53.206;-6.106;2023-02-17T05:47:19;0.65;;;0.22;;
58689;SDS011;44470;53.206;-6.106;2023-02-17T05:49:45;1.00;;;0.20;;
58689;SDS011;44470;53.206;-6.106;2023-02-17T05:52:11;0.68;;;0.22;;
58689;SDS011;44470;53.206;-6.106;2023-02-17T05:54:36;0.20;;;0.20;;
58689;SDS011;44470;53.206;-6.106;2023-02-17T05:57:02;0.10;;;0.10;;
58689;SDS011;44470;53.206;-6.106;2023-02-17T05:59:27;0.40;;;0.15;;
58689;SDS011;44470;53.206;-6.106;2023-02-17T06:01:53;0.30;;;0.20;;
58689;SDS011;44470;53.206;-6.106;2023-02-17T06:04:18;0.65;;;0.15;;
58689;SDS011;44470;53.206;-6.106;2023-02-17T06:06:44;0.10;;;0.10;;
58689;SDS011;44470;53.206;-6.106;2023-02-17T06:09:10;0.40;;;0.22;;
58689;SDS011;44470;53.206;-6.106;2023-02-17T06:11:35;0.10;;;0.10;;
58689;SDS011;44470;53.206;-6.106;2023-02-17T06:14:01;0.57;;;0.10;;
58689;SDS011;44470;53.206;-6.106;2023-02-17T06:16:26;0.40;;;0.20;;
58689;SDS011;44470;53.206;-6.106;2023-02-17T06:18:52;0.15;;;0.13;;
58689;SDS011;44470;53.206;-6.106;2023-02-17T06:21:17;0.80;;;0.20;;
58689;SDS011;44470;53.206;-6.106;2023-02-17T06:23:43;0.80;;;0.10;;
58689;SDS011;44470;53.206;-6.106;2023-02-17T06:26:08;0.63;;;0.20;;
58689;SDS011;44470;53.206;-6.106;2023-02-17T06:28:34;0.10;;;0.10;;
58689;SDS011;44470;53.206;-6.106;2023-02-17T06:30:59;0.17;;;0.15;;
58689;SDS011;44470;53.206;-6.106;2023-02-17T06:33:25;0.28;;;0.28;;
58689;SDS011;44470;53.206;-6.106;2023-02-17T06:35:51;2.00;;;0.20;;
58689;SDS011;44470;53.206;-6.106;2023-02-17T06:38:16;0.05;;;0.05;;
58689;SDS011;44470;53.206;-6.106;2023-02-17T06:40:42;0.10;;;0.10;;
58689;SDS011;44470;53.206;-6.106;2023-02-17T06:43:08;0.13;;;0.13;;
58689;SDS011;44470;53.206;-6.106;2023-02-17T06:45:34;0.10;;;0.10;;
58689;SDS011;44470;53.206;-6.106;2023-02-17T06:47:59;0.38;;;0.13;;
58689;SDS011;44470;53.206;-6.106;2023-02-17T06:50:25;0.15;;;0.10;;
58689;SDS011;44470;53.206;-6.106;2023-02-17T06:52:50;0.10;;;0.10;;
58689;SDS011;44470;53.206;-6.106;2023-02-17T06:55:16;0.05;;;0.00;;
58689;SDS011;44470;53.206;-6.106;2023-02-17T06:57:41;0.30;;;0.10;;
58689;SDS011;44470;53.206;-6.106;2023-02-17T07:00:07;0.38;;;0.10;;
58689;SDS011;44470;53.206;-6.106;2023-02-17T07:02:33;0.08;;;0.08;;
58689;SDS011;44470;53.206;-6.106;2023-02-17T07:05:01;0.10;;;0.10;;
58689;SDS011;44470;53.206;-6.106;2023-02-17T07:07:26;0.10;;;0.00;;
58689;SDS011;44470;53.206;-6.106;2023-02-17T07:09:52;0.10;;;0.10;;
58689;SDS011;44470;53.206;-6.106;2023-02-17T07:12:18;0.22;;;0.10;;
58689;SDS011;44470;53.206;-6.106;2023-02-17T07:14:43;0.17;;;0.17;;
58689;SDS011;44470;53.206;-6.106;2023-02-17T07:17:09;0.98;;;0.10;;
58689;SDS011;44470;53.206;-6.106;2023-02-17T07:19:34;0.00;;;0.00;;
58689;SDS011;44470;53.206;-6.106;2023-02-17T07:22:00;0.05;;;0.05;;
58689;SDS011;44470;53.206;-6.106;2023-02-17T07:24:26;0.20;;;0.20;;
58689;SDS011;44470;53.206;-6.106;2023-02-17T07:26:52;0.28;;;0.10;;
58689;SDS011;44470;53.206;-6.106;2023-02-17T07:29:20;0.65;;;0.00;;
58689;SDS011;44470;53.206;-6.106;2023-02-17T07:31:46;0.10;;;0.08;;
58689;SDS011;44470;53.206;-6.106;2023-02-17T07:34:11;0.80;;;0.30;;
58689;SDS011;44470;53.206;-6.106;2023-02-17T07:36:37;0.10;;;0.10;;
58689;SDS011;44470;53.206;-6.106;2023-02-17T07:39:02;0.17;;;0.10;;
58689;SDS011;44470;53.206;-6.106;2023-02-17T07:41:28;0.10;;;0.10;;
58689;SDS011;44470;53.206;-6.106;2023-02-17T07:43:57;1.92;;;0.30;;
58689;SDS011;44470;53.206;-6.106;2023-02-17T07:46:22;0.85;;;0.28;;
58689;SDS011;44470;53.206;-6.106;2023-02-17T07:48:49;2.80;;;0.25;;
58689;SDS011;44470;53.206;-6.106;2023-02-17T07:51:15;1.00;;;0.25;;
58689;SDS011;44470;53.206;-6.106;2023-02-17T07:53:45;0.20;;;0.15;;
58689;SDS011;44470;53.206;-6.106;2023-02-17T07:56:13;5.07;;;0.68;;
58689;SDS011;44470;53.206;-6.106;2023-02-17T07:58:40;4.72;;;0.47;;
58689;SDS011;44470;53.206;-6.106;2023-02-17T08:01:08;5.82;;;0.70;;
58689;SDS011;44470;53.206;-6.106;2023-02-17T08:03:35;4.50;;;0.90;;
58689;SDS011;44470;53.206;-6.106;2023-02-17T08:06:01;7.95;;;0.70;;
58689;SDS011;44470;53.206;-6.106;2023-02-17T08:08:27;6.45;;;0.82;;
58689;SDS011;44470;53.206;-6.106;2023-02-17T08:11:11;5.88;;;0.77;;
58689;SDS011;44470;53.206;-6.106;2023-02-17T08:13:57;6.88;;;0.70;;
58689;SDS011;44470;53.206;-6.106;2023-02-17T08:16:23;2.20;;;0.68;;
58689;SDS011;44470;53.206;-6.106;2023-02-17T08:18:51;5.90;;;1.05;;
58689;SDS011;44470;53.206;-6.106;2023-02-17T08:21:16;3.70;;;0.80;;
58689;SDS011;44470;53.206;-6.106;2023-02-17T08:23:42;6.68;;;0.90;;
58689;SDS011;44470;53.206;-6.106;2023-02-17T08:26:07;2.05;;;0.60;;
58689;SDS011;44470;53.206;-6.106;2023-02-17T08:28:33;2.45;;;0.93;;
58689;SDS011;44470;53.206;-6.106;2023-02-17T08:30:58;4.93;;;0.73;;
58689;SDS011;44470;53.206;-6.106;2023-02-17T08:33:24;3.65;;;0.73;;
58689;SDS011;44470;53.206;-6.106;2023-02-17T08:35:50;3.13;;;0.63;;
58689;SDS011;44470;53.206;-6.106;2023-02-17T08:38:15;5.03;;;0.98;;
58689;SDS011;44470;53.206;-6.106;2023-02-17T08:40:41;4.03;;;0.60;;
58689;SDS011;44470;53.206;-6.106;2023-02-17T08:43:07;4.78;;;0.68;;
58689;SDS011;44470;53.206;-6.106;2023-02-17T08:45:33;8.68;;;0.77;;
58689;SDS011;44470;53.206;-6.106;2023-02-17T08:48:00;4.40;;;1.05;;
58689;SDS011;44470;53.206;-6.106;2023-02-17T08:50:26;5.93;;;1.00;;
58689;SDS011;44470;53.206;-6.106;2023-02-17T08:52:51;2.05;;;0.75;;
58689;SDS011;44470;53.206;-6.106;2023-02-17T08:55:17;3.20;;;0.80;;
58689;SDS011;44470;53.206;-6.106;2023-02-17T08:57:44;6.80;;;1.10;;
58689;SDS011;44470;53.206;-6.106;2023-02-17T09:00:09;5.93;;;1.30;;
58689;SDS011;44470;53.206;-6.106;2023-02-17T09:02:35;2.17;;;0.68;;
58689;SDS011;44470;53.206;-6.106;2023-02-17T09:05:02;6.78;;;1.30;;
58689;SDS011;44470;53.206;-6.106;2023-02-17T09:07:29;3.63;;;0.90;;
58689;SDS011;44470;53.206;-6.106;2023-02-17T09:09:54;6.05;;;0.98;;
58689;SDS011;44470;53.206;-6.106;2023-02-17T09:12:20;8.43;;;1.45;;
58689;SDS011;44470;53.206;-6.106;2023-02-17T09:14:46;2.92;;;0.82;;
58689;SDS011;44470;53.206;-6.106;2023-02-17T09:17:11;9.45;;;1.27;;
58689;SDS011;44470;53.206;-6.106;2023-02-17T09:19:37;4.60;;;1.30;;
58689;SDS011;44470;53.206;-6.106;2023-02-17T09:22:03;6.80;;;1.50;;
58689;SDS011;44470;53.206;-6.106;2023-02-17T09:24:28;3.90;;;1.08;;
58689;SDS011;44470;53.206;-6.106;2023-02-17T09:26:57;2.70;;;1.08;;
58689;SDS011;44470;53.206;-6.106;2023-02-17T09:29:22;2.00;;;0.75;;
58689;SDS011;44470;53.206;-6.106;2023-02-17T09:31:48;5.43;;;1.15;;
58689;SDS011;44470;53.206;-6.106;2023-02-17T09:34:14;3.25;;;1.20;;
58689;SDS011;44470;53.206;-6.106;2023-02-17T09:36:40;4.90;;;1.17;;
58689;SDS011;44470;53.206;-6.106;2023-02-17T09:39:06;4.55;;;1.52;;
58689;SDS011;44470;53.206;-6.106;2023-02-17T09:41:36;5.78;;;1.42;;
58689;SDS011;44470;53.206;-6.106;2023-02-17T09:46:43;4.22;;;1.10;;
58689;SDS011;44470;53.206;-6.106;2023-02-17T09:49:16;2.67;;;0.98;;
58689;SDS011;44470;53.206;-6.106;2023-02-17T09:57:26;5.22;;;1.33;;
58689;SDS011;44470;53.206;-6.106;2023-02-17T09:59:56;6.28;;;1.38;;
58689;SDS011;44470;53.206;-6.106;2023-02-17T10:02:45;5.88;;;1.65;;
58689;SDS011;44470;53.206;-6.106;2023-02-17T10:05:24;8.70;;;1.55;;
58689;SDS011;44470;53.206;-6.106;2023-02-17T10:13:16;5.15;;;1.45;;
58689;SDS011;44470;53.206;-6.106;2023-02-17T10:15:48;5.07;;;1.55;;
58689;SDS011;44470;53.206;-6.106;2023-02-17T10:23:22;4.00;;;1.38;;
58689;SDS011;44470;53.206;-6.106;2023-02-17T10:31:24;4.30;;;1.65;;
58689;SDS011;44470;53.206;-6.106;2023-02-17T10:39:34;6.85;;;1.70;;
58689;SDS011;44470;53.206;-6.106;2023-02-17T10:44:47;4.25;;;1.50;;
58689;SDS011;44470;53.206;-6.106;2023-02-17T10:47:15;5.93;;;1.25;;
58689;SDS011;44470;53.206;-6.106;2023-02-17T10:49:43;6.80;;;1.27;;
58689;SDS011;44470;53.206;-6.106;2023-02-17T10:52:18;3.28;;;1.17;;
58689;SDS011;44470;53.206;-6.106;2023-02-17T10:54:51;4.20;;;1.38;;
58689;SDS011;44470;53.206;-6.106;2023-02-17T10:57:24;5.30;;;1.50;;
58689;SDS011;44470;53.206;-6.106;2023-02-17T10:59:56;7.07;;;1.45;;
58689;SDS011;44470;53.206;-6.106;2023-02-17T11:02:41;4.45;;;1.70;;
58689;SDS011;44470;53.206;-6.106;2023-02-17T11:05:18;6.63;;;1.58;;
58689;SDS011;44470;53.206;-6.106;2023-02-17T11:10:22;8.05;;;2.00;;
58689;SDS011;44470;53.206;-6.106;2023-02-17T11:12:52;7.90;;;1.50;;
58689;SDS011;44470;53.206;-6.106;2023-02-17T11:15:28;7.75;;;1.48;;
58689;SDS011;44470;53.206;-6.106;2023-02-17T11:17:58;4.97;;;1.40;;
58689;SDS011;44470;53.206;-6.106;2023-02-17T11:20:29;5.32;;;1.85;;
58689;SDS011;44470;53.206;-6.106;2023-02-17T11:23:15;5.88;;;1.20;;
58689;SDS011;44470;53.206;-6.106;2023-02-17T11:25:54;5.80;;;1.65;;
58689;SDS011;44470;53.206;-6.106;2023-02-17T11:28:25;5.22;;;1.60;;
58689;SDS011;44470;53.206;-6.106;2023-02-17T11:30:53;3.08;;;1.23;;
58689;SDS011;44470;53.206;-6.106;2023-02-17T11:33:31;6.22;;;1.90;;
58689;SDS011;44470;53.206;-6.106;2023-02-17T11:35:58;6.10;;;1.70;;
58689;SDS011;44470;53.206;-6.106;2023-02-17T11:38:28;7.93;;;1.45;;
58689;SDS011;44470;53.206;-6.106;2023-02-17T11:41:02;8.77;;;1.80;;
58689;SDS011;44470;53.206;-6.106;2023-02-17T11:43:30;8.10;;;1.98;;
58689;SDS011;44470;53.206;-6.106;2023-02-17T11:48:52;4.95;;;1.65;;
58689;SDS011;44470;53.206;-6.106;2023-02-17T11:54:26;4.93;;;1.42;;
58689;SDS011;44470;53.206;-6.106;2023-02-17T11:57:36;8.65;;;1.90;;
58689;SDS011;44470;53.206;-6.106;2023-02-17T12:05:31;10.18;;;1.80;;
58689;SDS011;44470;53.206;-6.106;2023-02-17T12:16:11;11.25;;;2.10;;
58689;SDS011;44470;53.206;-6.106;2023-02-17T12:19:02;5.93;;;1.67;;
58689;SDS011;44470;53.206;-6.106;2023-02-17T12:21:58;8.80;;;2.00;;
58689;SDS011;44470;53.206;-6.106;2023-02-17T12:35:26;4.55;;;1.50;;
58689;SDS011;44470;53.206;-6.106;2023-02-17T12:38:20;6.03;;;1.65;;
58689;SDS011;44470;53.206;-6.106;2023-02-17T12:41:03;5.28;;;1.63;;
58689;SDS011;44470;53.206;-6.106;2023-02-17T12:43:37;6.25;;;2.15;;
58689;SDS011;44470;53.206;-6.106;2023-02-17T12:46:08;5.45;;;1.45;;
58689;SDS011;44470;53.206;-6.106;2023-02-17T12:48:41;5.20;;;1.42;;
58689;SDS011;44470;53.206;-6.106;2023-02-17T12:51:20;5.18;;;1.73;;
58689;SDS011;44470;53.206;-6.106;2023-02-17T12:56:41;7.40;;;1.70;;
58689;SDS011;44470;53.206;-6.106;2023-02-17T13:02:31;7.65;;;1.73;;
58689;SDS011;44470;53.206;-6.106;2023-02-17T13:04:35;7.20;;;1.90;;
58689;SDS011;44470;53.206;-6.106;2023-02-17T13:07:07;11.35;;;1.95;;
58689;SDS011;44470;53.206;-6.106;2023-02-17T13:09:39;7.32;;;1.48;;
58689;SDS011;44470;53.206;-6.106;2023-02-17T13:14:48;6.65;;;1.65;;
58689;SDS011;44470;53.206;-6.106;2023-02-17T13:17:24;7.03;;;1.42;;
58689;SDS011;44470;53.206;-6.106;2023-02-17T13:20:36;8.65;;;1.90;;
58689;SDS011;44470;53.206;-6.106;2023-02-17T13:22:41;6.38;;;1.55;;
58689;SDS011;44470;53.206;-6.106;2023-02-17T13:25:28;5.30;;;1.40;;
58689;SDS011;44470;53.206;-6.106;2023-02-17T13:27:56;7.25;;;1.52;;
58689;SDS011;44470;53.206;-6.106;2023-02-17T13:30:28;6.18;;;1.25;;
58689;SDS011;44470;53.206;-6.106;2023-02-17T13:33:26;6.53;;;1.70;;
58689;SDS011;44470;53.206;-6.106;2023-02-17T13:35:55;7.72;;;1.50;;
58689;SDS011;44470;53.206;-6.106;2023-02-17T13:38:31;5.65;;;1.52;;
58689;SDS011;44470;53.206;-6.106;2023-02-17T13:41:01;5.13;;;1.52;;
58689;SDS011;44470;53.206;-6.106;2023-02-17T13:43:30;6.90;;;1.63;;
58689;SDS011;44470;53.206;-6.106;2023-02-17T13:46:05;6.60;;;1.70;;
58689;SDS011;44470;53.206;-6.106;2023-02-17T13:48:32;4.72;;;1.45;;
58689;SDS011;44470;53.206;-6.106;2023-02-17T13:51:00;5.13;;;1.75;;
58689;SDS011;44470;53.206;-6.106;2023-02-17T13:53:31;4.72;;;1.98;;
58689;SDS011;44470;53.206;-6.106;2023-02-17T13:58:28;3.67;;;1.40;;
58689;SDS011;44470;53.206;-6.106;2023-02-17T14:00:56;2.73;;;1.57;;
58689;SDS011;44470;53.206;-6.106;2023-02-17T14:06:03;3.90;;;1.55;;
58689;SDS011;44470;53.206;-6.106;2023-02-17T14:08:37;3.67;;;1.23;;
58689;SDS011;44470;53.206;-6.106;2023-02-17T14:11:10;3.15;;;1.23;;
58689;SDS011;44470;53.206;-6.106;2023-02-17T14:13:38;3.25;;;1.27;;
58689;SDS011;44470;53.206;-6.106;2023-02-17T14:16:06;4.05;;;1.52;;
58689;SDS011;44470;53.206;-6.106;2023-02-17T14:18:46;3.20;;;0.95;;
58689;SDS011;44470;53.206;-6.106;2023-02-17T14:21:24;5.05;;;1.58;;
58689;SDS011;44470;53.206;-6.106;2023-02-17T14:23:52;5.13;;;1.52;;
58689;SDS011;44470;53.206;-6.106;2023-02-17T14:26:29;5.78;;;1.50;;
58689;SDS011;44470;53.206;-6.106;2023-02-17T14:29:02;4.03;;;1.60;;
58689;SDS011;44470;53.206;-6.106;2023-02-17T14:31:41;4.78;;;1.70;;
58689;SDS011;44470;53.206;-6.106;2023-02-17T14:34:13;5.10;;;1.50;;
58689;SDS011;44470;53.206;-6.106;2023-02-17T14:36:50;5.43;;;1.60;;
58689;SDS011;44470;53.206;-6.106;2023-02-17T14:39:15;4.30;;;1.35;;
58689;SDS011;44470;53.206;-6.106;2023-02-17T14:41:41;3.90;;;1.65;;
58689;SDS011;44470;53.206;-6.106;2023-02-17T14:44:07;3.50;;;1.20;;
58689;SDS011;44470;53.206;-6.106;2023-02-17T14:46:34;5.05;;;1.52;;
58689;SDS011;44470;53.206;-6.106;2023-02-17T14:48:59;3.83;;;1.60;;
58689;SDS011;44470;53.206;-6.106;2023-02-17T14:51:30;3.22;;;1.35;;
58689;SDS011;44470;53.206;-6.106;2023-02-17T14:54:00;3.25;;;1.50;;
58689;SDS011;44470;53.206;-6.106;2023-02-17T14:56:34;4.22;;;1.30;;
58689;SDS011;44470;53.206;-6.106;2023-02-17T14:59:02;3.40;;;1.60;;
58689;SDS011;44470;53.206;-6.106;2023-02-17T15:01:29;3.70;;;1.40;;
58689;SDS011;44470;53.206;-6.106;2023-02-17T15:03:54;4.47;;;1.33;;
58689;SDS011;44470;53.206;-6.106;2023-02-17T15:06:24;3.58;;;1.38;;
58689;SDS011;44470;53.206;-6.106;2023-02-17T15:08:54;2.50;;;1.35;;
58689;SDS011;44470;53.206;-6.106;2023-02-17T15:11:26;3.88;;;1.40;;
58689;SDS011;44470;53.206;-6.106;2023-02-17T15:13:55;2.35;;;1.08;;
58689;SDS011;44470;53.206;-6.106;2023-02-17T15:16:20;2.53;;;1.27;;
58689;SDS011;44470;53.206;-6.106;2023-02-17T15:18:46;4.10;;;1.38;;
58689;SDS011;44470;53.206;-6.106;2023-02-17T15:21:23;4.00;;;1.58;;
58689;SDS011;44470;53.206;-6.106;2023-02-17T15:23:54;3.10;;;1.55;;
58689;SDS011;44470;53.206;-6.106;2023-02-17T15:26:21;2.63;;;1.10;;
58689;SDS011;44470;53.206;-6.106;2023-02-17T15:28:47;4.78;;;1.65;;
58689;SDS011;44470;53.206;-6.106;2023-02-17T15:31:13;3.10;;;1.50;;
58689;SDS011;44470;53.206;-6.106;2023-02-17T15:33:47;2.97;;;1.27;;
58689;SDS011;44470;53.206;-6.106;2023-02-17T15:36:19;5.38;;;1.60;;
58689;SDS011;44470;53.206;-6.106;2023-02-17T15:38:45;4.97;;;1.52;;
58689;SDS011;44470;53.206;-6.106;2023-02-17T15:41:12;4.07;;;1.70;;
58689;SDS011;44470;53.206;-6.106;2023-02-17T15:46:11;3.60;;;1.30;;
58689;SDS011;44470;53.206;-6.106;2023-02-17T15:48:38;3.42;;;1.48;;
58689;SDS011;44470;53.206;-6.106;2023-02-17T15:51:04;3.00;;;1.40;;
58689;SDS011;44470;53.206;-6.106;2023-02-17T15:53:30;3.38;;;1.60;;
58689;SDS011;44470;53.206;-6.106;2023-02-17T15:55:57;4.80;;;1.30;;
58689;SDS011;44470;53.206;-6.106;2023-02-17T15:58:26;3.25;;;1.30;;
58689;SDS011;44470;53.206;-6.106;2023-02-17T16:00:52;2.40;;;1.70;;
58689;SDS011;44470;53.206;-6.106;2023-02-17T16:03:24;2.47;;;1.20;;
58689;SDS011;44470;53.206;-6.106;2023-02-17T16:05:50;4.55;;;1.98;;
58689;SDS011;44470;53.206;-6.106;2023-02-17T16:08:17;2.28;;;1.27;;
58689;SDS011;44470;53.206;-6.106;2023-02-17T16:10:43;3.15;;;1.27;;
58689;SDS011;44470;53.206;-6.106;2023-02-17T16:13:11;3.40;;;1.23;;
58689;SDS011;44470;53.206;-6.106;2023-02-17T16:15:39;3.07;;;1.40;;
58689;SDS011;44470;53.206;-6.106;2023-02-17T16:18:05;2.97;;;1.35;;
58689;SDS011;44470;53.206;-6.106;2023-02-17T16:20:33;2.80;;;1.30;;
58689;SDS011;44470;53.206;-6.106;2023-02-17T16:22:59;2.83;;;1.60;;
58689;SDS011;44470;53.206;-6.106;2023-02-17T16:25:25;3.10;;;1.33;;
58689;SDS011;44470;53.206;-6.106;2023-02-17T16:27:53;4.35;;;1.50;;
58689;SDS011;44470;53.206;-6.106;2023-02-17T16:30:22;3.35;;;1.13;;
58689;SDS011;44470;53.206;-6.106;2023-02-17T16:32:51;1.35;;;1.13;;
58689;SDS011;44470;53.206;-6.106;2023-02-17T16:35:21;2.75;;;1.40;;
58689;SDS011;44470;53.206;-6.106;2023-02-17T16:37:57;2.22;;;1.25;;
58689;SDS011;44470;53.206;-6.106;2023-02-17T16:40:27;2.47;;;1.40;;
58689;SDS011;44470;53.206;-6.106;2023-02-17T16:42:54;2.30;;;1.23;;
58689;SDS011;44470;53.206;-6.106;2023-02-17T16:45:21;2.47;;;1.10;;